createdAt,value
2018-12-15T00:01:17.432Z,1.30
2018-12-15T00:03:45.559Z,1.40
2018-12-15T00:06:13.659Z,1.40
2018-12-15T00:08:41.899Z,1.40
2018-12-15T00:11:10.039Z,1.50
2018-12-15T00:13:38.337Z,1.50
2018-12-15T00:16:06.891Z,1.60
2018-12-15T00:18:35.049Z,1.70
2018-12-15T00:21:03.984Z,1.70
2018-12-15T00:23:32.096Z,1.70
2018-12-15T00:26:00.687Z,1.70
2018-12-15T00:28:28.798Z,1.70
2018-12-15T00:30:58.366Z,1.70
2018-12-15T00:33:26.816Z,1.70
2018-12-15T00:35:55.685Z,1.70
2018-12-15T00:38:24.115Z,1.60
2018-12-15T00:40:52.545Z,1.60
2018-12-15T00:43:20.772Z,1.70
2018-12-15T00:45:48.999Z,1.70
2018-12-15T00:48:17.372Z,1.70
2018-12-15T00:50:45.532Z,1.60
2018-12-15T00:53:13.686Z,1.60
2018-12-15T00:55:42.166Z,1.70
2018-12-15T00:58:10.683Z,1.80
2018-12-15T01:00:39.227Z,1.90
2018-12-15T01:03:07.410Z,2.00
2018-12-15T01:05:35.861Z,2.00
2018-12-15T01:08:04.145Z,2.10
2018-12-15T01:10:32.710Z,2.00
2018-12-15T01:13:00.893Z,2.00
2018-12-15T01:15:34.765Z,2.00
2018-12-15T01:18:03.969Z,1.80
2018-12-15T01:20:32.207Z,1.80
2018-12-15T01:23:00.351Z,1.80
2018-12-15T01:25:28.972Z,1.80
2018-12-15T01:27:57.475Z,1.90
2018-12-15T01:30:26.466Z,1.80
2018-12-15T01:32:55.157Z,1.80
2018-12-15T01:35:23.289Z,1.80
2018-12-15T01:37:51.487Z,1.80
2018-12-15T01:40:19.753Z,1.70
2018-12-15T01:42:48.397Z,1.80
2018-12-15T01:45:16.577Z,1.80
2018-12-15T01:47:44.974Z,1.80
2018-12-15T01:50:13.774Z,1.80
2018-12-15T01:52:41.949Z,1.80
2018-12-15T01:55:11.230Z,1.80
2018-12-15T01:57:39.571Z,1.70
2018-12-15T02:00:08.824Z,1.70
2018-12-15T02:02:38.192Z,1.70
2018-12-15T02:05:06.544Z,1.70
2018-12-15T02:07:34.679Z,1.70
2018-12-15T02:10:02.926Z,1.70
2018-12-15T02:12:31.126Z,1.70
2018-12-15T02:14:59.467Z,1.60
2018-12-15T02:17:33.624Z,1.60
2018-12-15T02:19:59.030Z,1.60
2018-12-15T02:22:27.870Z,1.70
2018-12-15T02:24:56.260Z,1.70
2018-12-15T02:27:24.655Z,1.50
2018-12-15T02:29:52.910Z,1.30
2018-12-15T02:32:21.435Z,1.40
2018-12-15T02:34:49.702Z,1.40
2018-12-15T02:37:18.038Z,1.50
2018-12-15T02:39:46.269Z,1.50
2018-12-15T02:42:14.522Z,1.50
2018-12-15T02:44:42.861Z,1.60
2018-12-15T02:47:11.147Z,1.60
2018-12-15T02:49:39.417Z,1.70
2018-12-15T02:52:07.975Z,1.70
2018-12-15T02:54:36.114Z,1.70
2018-12-15T02:57:04.337Z,1.70
2018-12-15T02:59:32.955Z,1.70
2018-12-15T03:02:01.825Z,1.70
2018-12-15T03:04:30.177Z,1.70
2018-12-15T03:06:58.525Z,1.80
2018-12-15T03:09:27.439Z,1.80
2018-12-15T03:11:55.578Z,1.80
2018-12-15T03:14:24.253Z,1.80
2018-12-15T03:17:04.538Z,1.80
2018-12-15T03:19:33.017Z,1.80
2018-12-15T03:22:01.921Z,1.70
2018-12-15T03:24:30.241Z,1.70
2018-12-15T03:26:58.604Z,1.70
2018-12-15T03:29:27.916Z,1.70
2018-12-15T03:31:56.298Z,1.70
2018-12-15T03:34:24.491Z,1.60
2018-12-15T03:36:52.702Z,1.60
2018-12-15T03:39:21.194Z,1.60
2018-12-15T03:41:49.603Z,1.60
2018-12-15T03:44:17.735Z,1.60
2018-12-15T03:46:45.991Z,1.60
2018-12-15T03:49:14.220Z,1.60
2018-12-15T03:51:42.667Z,1.60
2018-12-15T03:54:11.003Z,1.60
2018-12-15T03:56:39.450Z,1.60
2018-12-15T03:59:08.003Z,1.70
2018-12-15T04:01:36.582Z,1.70
2018-12-15T04:04:04.970Z,1.80
2018-12-15T04:06:33.072Z,1.70
2018-12-15T04:09:01.188Z,1.60
2018-12-15T04:11:29.328Z,1.60
2018-12-15T04:13:57.657Z,1.60
2018-12-15T04:16:26.370Z,1.50
2018-12-15T04:18:54.654Z,1.50
2018-12-15T04:21:23.846Z,1.60
2018-12-15T04:23:52.244Z,1.60
2018-12-15T04:26:20.878Z,1.60
2018-12-15T04:28:49.114Z,1.50
2018-12-15T04:31:17.463Z,1.50
2018-12-15T04:33:45.666Z,1.50
2018-12-15T04:36:17.131Z,1.50
2018-12-15T04:38:45.315Z,1.40
2018-12-15T04:41:13.633Z,1.40
2018-12-15T04:43:41.877Z,1.30
2018-12-15T04:46:11.559Z,1.30
2018-12-15T04:48:39.868Z,1.20
2018-12-15T04:51:08.068Z,1.20
2018-12-15T04:53:36.310Z,1.20
2018-12-15T04:56:05.092Z,1.20
2018-12-15T04:58:33.481Z,1.10
2018-12-15T05:01:14.426Z,0.90
2018-12-15T05:03:42.601Z,0.70
2018-12-15T05:06:10.944Z,0.70
2018-12-15T05:08:39.385Z,0.80
2018-12-15T05:11:07.688Z,0.80
2018-12-15T05:13:36.038Z,0.90
2018-12-15T05:16:04.202Z,0.80
2018-12-15T05:18:32.567Z,0.90
2018-12-15T05:21:00.832Z,0.80
2018-12-15T05:23:28.967Z,0.90
2018-12-15T05:25:57.696Z,0.90
2018-12-15T05:28:25.924Z,0.90
2018-12-15T05:30:54.039Z,0.90
2018-12-15T05:33:22.277Z,1.00
2018-12-15T05:35:50.661Z,1.00
2018-12-15T05:38:19.831Z,1.00
2018-12-15T05:40:48.300Z,1.00
2018-12-15T05:43:16.442Z,1.00
2018-12-15T05:45:45.061Z,1.10
2018-12-15T05:48:14.031Z,1.10
2018-12-15T05:50:42.902Z,1.10
2018-12-15T05:53:11.407Z,1.20
2018-12-15T05:55:39.561Z,1.20
2018-12-15T05:58:07.904Z,1.20
2018-12-15T06:00:36.350Z,1.20
2018-12-15T06:05:33.914Z,1.30
2018-12-15T06:08:02.253Z,1.30
2018-12-15T06:10:30.422Z,1.20
2018-12-15T06:12:58.571Z,1.20
2018-12-15T06:15:26.776Z,1.20
2018-12-15T06:17:56.700Z,1.30
2018-12-15T06:20:24.798Z,1.30
2018-12-15T06:22:53.057Z,1.30
2018-12-15T06:25:21.382Z,1.30
2018-12-15T06:27:49.880Z,1.30
2018-12-15T06:30:18.021Z,1.30
2018-12-15T06:32:47.121Z,1.30
2018-12-15T06:35:15.470Z,1.40
2018-12-15T06:37:43.555Z,1.30
2018-12-15T06:40:11.802Z,1.30
2018-12-15T06:42:40.319Z,1.30
2018-12-15T06:45:20.597Z,1.30
2018-12-15T06:47:49.002Z,1.30
2018-12-15T06:50:18.070Z,1.20
2018-12-15T06:52:46.221Z,1.20
2018-12-15T06:55:14.391Z,1.20
2018-12-15T06:57:42.616Z,1.20
2018-12-15T07:00:11.402Z,1.30
2018-12-15T07:02:39.666Z,1.20
2018-12-15T07:05:07.902Z,1.20
2018-12-15T07:07:36.152Z,1.20
2018-12-15T07:10:04.641Z,1.20
2018-12-15T07:12:33.072Z,1.20
2018-12-15T07:15:01.403Z,1.30
2018-12-15T07:17:29.974Z,1.30
2018-12-15T07:19:58.099Z,1.30
2018-12-15T07:22:27.078Z,1.40
2018-12-15T07:24:55.387Z,1.40
2018-12-15T07:27:23.859Z,1.40
2018-12-15T07:29:52.003Z,1.40
2018-12-15T07:32:20.490Z,1.40
2018-12-15T07:34:48.869Z,1.40
2018-12-15T07:37:17.586Z,1.30
2018-12-15T07:39:45.801Z,1.30
2018-12-15T07:42:14.613Z,1.20
2018-12-15T07:44:43.565Z,1.20
2018-12-15T07:47:15.719Z,1.30
2018-12-15T07:49:44.037Z,1.40
2018-12-15T07:52:12.164Z,1.40
2018-12-15T07:54:40.282Z,1.40
2018-12-15T07:57:08.480Z,1.40
2018-12-15T07:59:37.130Z,1.40
2018-12-15T08:02:05.415Z,1.40
2018-12-15T08:04:33.686Z,1.40
2018-12-15T08:07:01.879Z,1.40
2018-12-15T08:09:30.066Z,1.40
2018-12-15T08:12:03.967Z,1.30
2018-12-15T08:14:32.343Z,1.30
2018-12-15T08:17:00.802Z,1.30
2018-12-15T08:19:29.184Z,1.30
2018-12-15T08:21:57.683Z,1.20
2018-12-15T08:24:25.781Z,1.20
2018-12-15T08:26:54.237Z,1.30
2018-12-15T08:29:22.547Z,1.20
2018-12-15T08:31:51.107Z,1.30
2018-12-15T08:34:19.649Z,1.30
2018-12-15T08:36:47.957Z,1.40
2018-12-15T08:39:16.186Z,1.40
2018-12-15T08:41:44.610Z,1.40
2018-12-15T08:44:12.759Z,1.40
2018-12-15T08:46:41.162Z,1.40
2018-12-15T08:49:09.335Z,1.40
2018-12-15T08:51:37.636Z,1.40
2018-12-15T08:54:05.942Z,1.40
2018-12-15T08:56:34.665Z,1.40
2018-12-15T08:59:04.276Z,1.40
2018-12-15T09:01:32.559Z,1.30
2018-12-15T09:04:00.899Z,1.30
2018-12-15T09:06:29.055Z,1.30
2018-12-15T09:08:57.304Z,1.30
2018-12-15T09:11:25.370Z,1.30
2018-12-15T09:13:53.805Z,1.30
2018-12-15T09:16:26.323Z,1.30
2018-12-15T09:18:53.243Z,1.40
2018-12-15T09:21:21.508Z,1.40
2018-12-15T09:23:50.092Z,1.40
2018-12-15T09:26:18.829Z,1.30
2018-12-15T09:28:47.046Z,1.40
2018-12-15T09:31:15.303Z,1.40
2018-12-15T09:33:43.530Z,1.40
2018-12-15T09:36:12.114Z,1.50
2018-12-15T09:38:40.371Z,1.50
2018-12-15T09:41:08.515Z,1.60
2018-12-15T09:43:38.066Z,1.60
2018-12-15T09:46:06.874Z,1.70
2018-12-15T09:48:35.041Z,1.60
2018-12-15T09:51:03.409Z,1.50
2018-12-15T09:53:31.866Z,1.60
2018-12-15T09:56:00.030Z,1.70
2018-12-15T09:58:28.749Z,1.70
2018-12-15T10:00:57.906Z,1.60
2018-12-15T10:03:25.998Z,1.60
2018-12-15T10:05:54.278Z,1.30
2018-12-15T10:08:22.513Z,1.30
2018-12-15T10:10:50.811Z,1.40
2018-12-15T10:13:19.125Z,1.60
2018-12-15T10:15:47.985Z,1.80
2018-12-15T10:18:16.823Z,1.90
2018-12-15T10:20:45.395Z,1.90
2018-12-15T10:23:13.919Z,2.00
2018-12-15T10:25:42.123Z,2.00
2018-12-15T10:28:10.330Z,2.10
2018-12-15T10:30:43.842Z,2.10
2018-12-15T10:33:12.229Z,2.20
2018-12-15T10:35:40.967Z,2.10
2018-12-15T10:38:09.190Z,2.00
2018-12-15T10:40:37.466Z,2.10
2018-12-15T10:43:05.844Z,2.00
2018-12-15T10:45:33.987Z,2.00
2018-12-15T10:48:02.363Z,2.10
2018-12-15T10:50:30.621Z,2.00
2018-12-15T10:52:59.318Z,2.10
2018-12-15T10:55:28.148Z,2.00
2018-12-15T10:57:57.191Z,2.10
2018-12-15T11:00:29.960Z,2.10
2018-12-15T11:02:58.094Z,2.10
2018-12-15T11:05:26.217Z,2.00
2018-12-15T11:07:55.843Z,2.00
2018-12-15T11:10:36.713Z,2.00
2018-12-15T11:13:05.000Z,2.00
2018-12-15T11:15:33.214Z,1.90
2018-12-15T11:18:01.762Z,1.90
2018-12-15T11:20:30.058Z,2.00
2018-12-15T11:22:58.569Z,2.10
2018-12-15T11:25:26.898Z,2.20
2018-12-15T11:27:56.050Z,2.30
2018-12-15T11:30:24.684Z,2.40
2018-12-15T11:32:53.000Z,2.30
2018-12-15T11:35:21.283Z,2.30
2018-12-15T11:37:49.445Z,2.30
2018-12-15T11:40:18.238Z,2.40
2018-12-15T11:42:46.669Z,2.40
2018-12-15T11:45:16.122Z,2.50
2018-12-15T11:47:44.238Z,2.30
2018-12-15T11:50:12.524Z,2.20
2018-12-15T11:52:42.023Z,2.20
2018-12-15T11:55:10.493Z,2.30
2018-12-15T11:57:38.690Z,2.30
2018-12-15T12:00:07.124Z,2.30
2018-12-15T12:02:36.541Z,2.00
2018-12-15T12:05:05.486Z,2.10
2018-12-15T12:07:34.608Z,1.90
2018-12-15T12:10:02.910Z,1.70
2018-12-15T12:12:31.895Z,1.80
2018-12-15T12:15:00.248Z,1.90
2018-12-15T12:17:28.368Z,2.00
2018-12-15T12:19:56.719Z,2.20
2018-12-15T12:22:25.245Z,2.20
2018-12-15T12:24:53.348Z,2.20
2018-12-15T12:27:22.151Z,2.30
2018-12-15T12:29:51.700Z,2.40
2018-12-15T12:32:19.801Z,2.40
2018-12-15T12:34:48.263Z,2.40
2018-12-15T12:37:18.152Z,2.40
2018-12-15T12:39:46.362Z,2.30
2018-12-15T12:42:14.501Z,2.10
2018-12-15T12:44:43.150Z,2.10
2018-12-15T12:47:11.394Z,2.20
2018-12-15T12:49:40.316Z,2.20
2018-12-15T12:52:08.683Z,2.10
2018-12-15T12:54:37.525Z,1.90
2018-12-15T12:57:07.035Z,2.00
2018-12-15T12:59:36.014Z,2.10
2018-12-15T13:02:05.465Z,2.10
2018-12-15T13:04:33.833Z,2.10
2018-12-15T13:07:02.490Z,2.10
2018-12-15T13:09:30.829Z,1.70
2018-12-15T13:11:59.176Z,1.70
2018-12-15T13:14:27.993Z,1.60
2018-12-15T13:16:56.330Z,1.50
2018-12-15T13:19:25.125Z,1.50
2018-12-15T13:21:53.326Z,1.60
2018-12-15T13:24:21.880Z,1.70
2018-12-15T13:26:50.942Z,1.80
2018-12-15T13:29:19.142Z,1.70
2018-12-15T13:31:47.255Z,1.50
2018-12-15T13:34:16.191Z,1.40
2018-12-15T13:36:44.987Z,1.40
2018-12-15T13:39:13.262Z,1.30
2018-12-15T13:41:41.992Z,1.40
2018-12-15T13:44:10.111Z,1.30
2018-12-15T13:46:38.962Z,1.30
2018-12-15T13:49:07.313Z,1.30
2018-12-15T13:51:35.627Z,1.30
2018-12-15T13:54:03.912Z,1.30
2018-12-15T13:56:32.762Z,1.30
2018-12-15T13:59:01.705Z,1.40
2018-12-15T14:01:30.190Z,1.60
2018-12-15T14:03:58.410Z,1.60
2018-12-15T14:06:26.765Z,1.70
2018-12-15T14:08:54.970Z,1.50
2018-12-15T14:11:23.132Z,1.40
2018-12-15T14:13:51.441Z,1.40
2018-12-15T14:16:20.353Z,1.40
2018-12-15T14:18:48.602Z,1.50
2018-12-15T14:21:16.929Z,1.50
2018-12-15T14:23:45.050Z,1.50
2018-12-15T14:26:14.056Z,1.50
2018-12-15T14:28:42.386Z,1.60
2018-12-15T14:31:11.899Z,1.70
2018-12-15T14:33:40.514Z,1.80
2018-12-15T14:36:08.829Z,1.70
2018-12-15T14:38:37.151Z,1.60
2018-12-15T14:41:05.319Z,1.60
2018-12-15T14:43:33.534Z,1.60
2018-12-15T14:46:01.729Z,1.60
2018-12-15T14:48:30.088Z,1.50
2018-12-15T14:50:58.768Z,1.40
2018-12-15T14:53:27.625Z,1.40
2018-12-15T14:55:56.235Z,1.20
2018-12-15T14:58:24.403Z,1.10
2018-12-15T15:00:53.077Z,1.10
2018-12-15T15:03:21.479Z,1.00
2018-12-15T15:05:49.841Z,1.00
2018-12-15T15:08:18.255Z,1.10
2018-12-15T15:10:46.412Z,1.00
2018-12-15T15:13:16.486Z,1.10
2018-12-15T15:15:44.844Z,1.00
2018-12-15T15:18:12.950Z,1.00
2018-12-15T15:20:41.513Z,1.00
2018-12-15T15:23:10.265Z,1.00
2018-12-15T15:25:38.543Z,1.00
2018-12-15T15:28:07.184Z,1.10
2018-12-15T15:30:35.930Z,1.10
2018-12-15T15:33:05.754Z,1.20
2018-12-15T15:35:34.018Z,1.10
2018-12-15T15:38:02.410Z,1.00
2018-12-15T15:40:30.741Z,1.00
2018-12-15T15:42:59.074Z,1.00
2018-12-15T15:45:27.326Z,1.00
2018-12-15T15:47:56.510Z,0.90
2018-12-15T15:50:25.035Z,0.90
2018-12-15T15:52:53.427Z,0.90
2018-12-15T15:55:21.747Z,0.90
2018-12-15T15:57:50.193Z,0.90
2018-12-15T16:00:19.710Z,0.90
2018-12-15T16:02:47.834Z,1.00
2018-12-15T16:05:15.935Z,1.00
2018-12-15T16:07:45.349Z,1.10
2018-12-15T16:10:15.222Z,1.10
2018-12-15T16:12:43.547Z,1.00
2018-12-15T16:15:11.843Z,1.00
2018-12-15T16:17:40.084Z,0.90
2018-12-15T16:20:11.182Z,1.00
2018-12-15T16:22:39.546Z,0.90
2018-12-15T16:25:07.832Z,0.90
2018-12-15T16:27:36.594Z,0.90
2018-12-15T16:30:08.262Z,0.90
2018-12-15T16:32:36.834Z,1.00
2018-12-15T16:35:05.856Z,1.00
2018-12-15T16:37:34.244Z,1.00
2018-12-15T16:40:02.562Z,0.90
2018-12-15T16:42:30.695Z,0.90
2018-12-15T16:44:58.927Z,0.90
2018-12-15T16:47:27.670Z,0.90
2018-12-15T16:49:56.292Z,0.80
2018-12-15T16:52:25.473Z,0.80
2018-12-15T16:54:53.978Z,0.80
2018-12-15T16:57:23.058Z,0.80
2018-12-15T16:59:52.478Z,0.80
2018-12-15T17:02:21.450Z,0.80
2018-12-15T17:04:49.630Z,0.90
2018-12-15T17:07:17.995Z,0.80
2018-12-15T17:09:46.235Z,0.70
2018-12-15T17:12:14.470Z,0.70
2018-12-15T17:14:42.694Z,0.70
2018-12-15T17:17:11.144Z,0.70
2018-12-15T17:19:39.668Z,0.70
2018-12-15T17:22:08.661Z,0.70
2018-12-15T17:24:37.351Z,0.70
2018-12-15T17:27:05.860Z,0.70
2018-12-15T17:29:34.982Z,0.60
2018-12-15T17:32:03.137Z,0.60
2018-12-15T17:34:31.274Z,0.60
2018-12-15T17:37:00.062Z,0.70
2018-12-15T17:39:28.510Z,0.70
2018-12-15T17:41:57.558Z,0.70
2018-12-15T17:44:25.681Z,0.70
2018-12-15T17:46:54.770Z,0.70
2018-12-15T17:49:23.009Z,0.70
2018-12-15T17:51:51.978Z,0.70
2018-12-15T17:54:20.166Z,0.70
2018-12-15T17:56:48.504Z,0.60
2018-12-15T17:59:16.923Z,0.50
2018-12-15T18:01:45.287Z,0.50
2018-12-15T18:04:13.805Z,0.50
2018-12-15T18:06:42.165Z,0.50
2018-12-15T18:09:10.438Z,0.50
2018-12-15T18:11:38.820Z,0.50
2018-12-15T18:14:06.902Z,0.40
2018-12-15T18:16:35.137Z,0.50
2018-12-15T18:19:03.530Z,0.40
2018-12-15T18:21:32.237Z,0.40
2018-12-15T18:24:00.358Z,0.30
2018-12-15T18:26:28.964Z,0.30
2018-12-15T18:28:57.160Z,0.20
2018-12-15T18:31:25.390Z,0.20
2018-12-15T18:33:53.540Z,0.10
2018-12-15T18:36:22.280Z,0.10
2018-12-15T18:38:50.410Z,0.10
2018-12-15T18:41:18.791Z,0.00
2018-12-15T18:43:46.938Z,0.00
2018-12-15T18:46:15.590Z,0.00
2018-12-15T18:48:43.873Z,0.00
2018-12-15T18:51:16.333Z,0.00
2018-12-15T18:53:42.946Z,0.00
2018-12-15T18:56:11.272Z,0.00
2018-12-15T18:58:39.363Z,0.00
2018-12-15T19:01:07.903Z,-0.10
2018-12-15T19:03:36.164Z,-0.10
2018-12-15T19:06:04.371Z,-0.10
2018-12-15T19:08:32.603Z,-0.10
2018-12-15T19:11:00.864Z,-0.10
2018-12-15T19:13:29.127Z,-0.10
2018-12-15T19:15:57.842Z,-0.20
2018-12-15T19:18:26.240Z,-0.20
2018-12-15T19:20:55.910Z,-0.30
2018-12-15T19:23:24.541Z,-0.30
2018-12-15T19:25:52.958Z,-0.30
2018-12-15T19:28:21.626Z,-0.40
2018-12-15T19:30:49.860Z,-0.40
2018-12-15T19:33:19.030Z,-0.50
2018-12-15T19:35:47.197Z,-0.50
2018-12-15T19:38:15.378Z,-0.50
2018-12-15T19:40:43.681Z,-0.50
2018-12-15T19:43:11.844Z,-0.60
2018-12-15T19:45:40.485Z,-0.60
2018-12-15T19:48:08.764Z,-0.60
2018-12-15T19:50:37.278Z,-0.60
2018-12-15T19:53:05.474Z,-0.70
2018-12-15T19:55:34.507Z,-0.70
2018-12-15T19:58:02.824Z,-0.70
2018-12-15T20:00:31.638Z,-0.80
2018-12-15T20:02:59.846Z,-0.90
2018-12-15T20:05:28.589Z,-1.00
2018-12-15T20:07:56.799Z,-1.00
2018-12-15T20:10:24.962Z,-1.00
2018-12-15T20:12:53.114Z,-1.00
2018-12-15T20:15:21.391Z,-1.10
2018-12-15T20:17:50.185Z,-1.00
2018-12-15T20:20:18.446Z,-1.00
2018-12-15T20:22:46.680Z,-1.00
2018-12-15T20:25:14.881Z,-1.00
2018-12-15T20:27:44.236Z,-1.00
2018-12-15T20:30:13.272Z,-1.10
2018-12-15T20:32:42.604Z,-1.10
2018-12-15T20:35:11.541Z,-1.20
2018-12-15T20:37:39.783Z,-1.30
2018-12-15T20:40:09.654Z,-1.30
2018-12-15T20:42:38.265Z,-1.40
2018-12-15T20:45:06.562Z,-1.40
2018-12-15T20:47:35.622Z,-1.50
2018-12-15T20:50:05.307Z,-1.60
2018-12-15T20:52:33.511Z,-1.60
2018-12-15T20:55:01.799Z,-1.60
2018-12-15T20:57:30.043Z,-1.60
2018-12-15T20:59:58.886Z,-1.70
2018-12-15T21:02:28.059Z,-1.70
2018-12-15T21:04:56.866Z,-1.70
2018-12-15T21:07:25.045Z,-1.80
2018-12-15T21:09:53.332Z,-1.80
2018-12-15T21:12:22.131Z,-1.80
2018-12-15T21:14:50.858Z,-1.80
2018-12-15T21:17:19.475Z,-1.90
2018-12-15T21:19:48.030Z,-1.90
2018-12-15T21:22:16.634Z,-1.90
2018-12-15T21:24:45.443Z,-1.90
2018-12-15T21:27:14.396Z,-2.00
2018-12-15T21:29:43.413Z,-2.00
2018-12-15T21:32:11.673Z,-2.00
2018-12-15T21:34:39.843Z,-2.00
2018-12-15T21:37:08.262Z,-2.00
2018-12-15T21:39:36.501Z,-2.00
2018-12-15T21:42:05.746Z,-2.00
2018-12-15T21:44:33.939Z,-2.00
2018-12-15T21:47:02.057Z,-2.00
2018-12-15T21:49:30.317Z,-2.00
2018-12-15T21:51:58.489Z,-2.00
2018-12-15T21:54:26.654Z,-2.00
2018-12-15T21:56:55.015Z,-2.00
2018-12-15T21:59:23.635Z,-2.00
2018-12-15T22:01:51.878Z,-2.00
2018-12-15T22:04:20.334Z,-2.00
2018-12-15T22:06:49.374Z,-2.00
2018-12-15T22:09:17.601Z,-2.00
2018-12-15T22:11:46.995Z,-2.00
2018-12-15T22:14:15.491Z,-2.00
2018-12-15T22:16:44.029Z,-2.00
2018-12-15T22:19:12.336Z,-2.00
2018-12-15T22:21:40.554Z,-2.00
2018-12-15T22:24:08.650Z,-2.00
2018-12-15T22:26:37.275Z,-2.00
2018-12-15T22:29:06.620Z,-2.00
2018-12-15T22:31:35.382Z,-2.00
2018-12-15T22:34:04.109Z,-1.90
2018-12-15T22:36:32.465Z,-1.90
2018-12-15T22:39:00.972Z,-1.90
2018-12-15T22:41:29.495Z,-1.80
2018-12-15T22:43:58.261Z,-1.80
2018-12-15T22:46:26.792Z,-1.70
2018-12-15T22:48:54.974Z,-1.60
2018-12-15T22:51:23.595Z,-1.60
2018-12-15T22:53:51.846Z,-1.50
2018-12-15T22:56:20.000Z,-1.40
2018-12-15T22:58:48.898Z,-1.40
2018-12-15T23:01:18.593Z,-1.30
2018-12-15T23:03:47.912Z,-1.30
2018-12-15T23:06:15.988Z,-1.30
2018-12-15T23:08:44.187Z,-1.20
2018-12-15T23:11:13.024Z,-1.20
2018-12-15T23:13:41.311Z,-1.20
2018-12-15T23:16:09.614Z,-1.10
2018-12-15T23:18:38.012Z,-1.10
2018-12-15T23:21:06.198Z,-1.10
2018-12-15T23:23:34.417Z,-1.10
2018-12-15T23:26:02.816Z,-1.00
2018-12-15T23:28:31.661Z,-1.00
2018-12-15T23:31:00.372Z,-1.00
2018-12-15T23:33:29.867Z,-0.90
2018-12-15T23:35:58.555Z,-1.00
2018-12-15T23:38:27.061Z,-1.00
2018-12-15T23:40:55.273Z,-1.00
2018-12-15T23:43:23.664Z,-1.00
2018-12-15T23:45:51.903Z,-1.00
2018-12-15T23:48:20.714Z,-1.00
2018-12-15T23:50:49.637Z,-1.00
2018-12-15T23:53:18.315Z,-1.00
2018-12-15T23:55:46.765Z,-1.00
2018-12-15T23:58:15.066Z,-1.00
